Time;durP1;ratioP1;P1;durP2;ratioP2;P2;SDS_P1;SDS_P2;PMS_P1;PMS_P2;Temp;Humidity;BMP_temperature;BMP_pressure;BME280_temperature;BME280_humidity;BME280_pressure;Samples;Min_cycle;Max_cycle;Signal;HPM_P1;HPM_P2
2022/03/19 00:00:33;;;;;;;10.88;2.83;;;6.20;99.90;;;;;;4870310;29;20054;-85
2022/03/19 00:02:58;;;;;;;15.20;3.47;;;5.60;99.90;;;;;;4857784;29;20451;-87
2022/03/19 00:05:24;;;;;;;14.90;3.30;;;5.60;99.90;;;;;;4851500;29;20076;-86
2022/03/19 00:07:50;;;;;;;12.15;3.17;;;6.30;99.90;;;;;;4867029;29;20056;-86
2022/03/19 00:10:17;;;;;;;12.70;3.35;;;5.60;99.90;;;;;;4866637;29;20139;-86
2022/03/19 00:12:42;;;;;;;16.45;3.45;;;5.50;99.90;;;;;;4866197;29;20525;-86
2022/03/19 00:15:10;;;;;;;14.18;3.15;;;5.40;99.90;;;;;;4851079;29;20176;-87
2022/03/19 00:17:37;;;;;;;16.65;3.63;;;5.40;99.90;;;;;;4867125;29;20049;-87
2022/03/19 00:20:04;;;;;;;17.70;3.42;;;5.40;99.90;;;;;;4882579;29;20048;-86
2022/03/19 00:22:30;;;;;;;11.85;3.00;;;5.40;99.90;;;;;;4863194;29;20096;-87
2022/03/19 00:24:57;;;;;;;18.70;3.25;;;5.50;99.90;;;;;;4863735;29;20487;-86
2022/03/19 00:27:24;;;;;;;12.23;3.05;;;5.50;99.90;;;;;;4847648;29;20559;-87
2022/03/19 00:29:50;;;;;;;14.35;2.90;;;5.50;99.90;;;;;;4848703;29;20061;-86
2022/03/19 00:32:15;;;;;;;13.82;4.13;;;5.60;99.90;;;;;;4847868;29;20060;-86
2022/03/19 00:34:41;;;;;;;13.68;3.75;;;5.60;99.90;;;;;;4863683;29;20136;-86
2022/03/19 00:37:07;;;;;;;11.40;3.10;;;6.30;99.90;;;;;;4863205;29;20177;-89
2022/03/19 00:39:32;;;;;;;15.57;2.97;;;6.20;99.90;;;;;;4847615;29;20053;-86
2022/03/19 00:41:58;;;;;;;12.18;3.00;;;5.60;99.90;;;;;;4848357;29;20056;-87
2022/03/19 00:44:24;;;;;;;16.02;3.88;;;6.40;99.90;;;;;;4863257;29;20044;-86
2022/03/19 00:46:50;;;;;;;17.88;3.30;;;5.50;99.90;;;;;;4848187;29;20478;-86
2022/03/19 00:49:16;;;;;;;15.50;3.08;;;6.10;99.90;;;;;;4862958;29;20059;-87
2022/03/19 00:51:42;;;;;;;13.35;3.05;;;5.80;99.90;;;;;;4847972;29;20071;-87
2022/03/19 00:54:09;;;;;;;14.05;3.25;;;5.50;99.90;;;;;;4847739;29;20117;-88
2022/03/19 00:56:36;;;;;;;13.95;3.05;;;5.60;99.90;;;;;;4861883;29;20052;-86
2022/03/19 00:59:01;;;;;;;;;;;5.30;99.90;;;;;;4866498;29;20097;-86
2022/03/19 01:01:27;;;;;;;13.73;4.05;;;5.30;99.90;;;;;;4868081;29;19924;-86
2022/03/19 01:03:54;;;;;;;13.93;3.22;;;6.00;99.90;;;;;;4862343;29;20056;-88
2022/03/19 01:06:20;;;;;;;16.63;3.33;;;5.40;99.90;;;;;;4828720;29;20145;-86
2022/03/19 01:08:46;;;;;;;15.35;3.67;;;5.40;99.90;;;;;;4844538;29;20114;-87
2022/03/19 01:11:12;;;;;;;;;;;5.40;99.90;;;;;;4844637;29;20044;-87
2022/03/19 01:13:38;;;;;;;21.00;3.72;;;5.40;99.90;;;;;;4863620;29;19928;-87
2022/03/19 01:16:04;;;;;;;15.75;3.72;;;5.50;99.90;;;;;;4881487;29;20063;-87
2022/03/19 01:18:30;;;;;;;14.32;3.38;;;5.40;99.90;;;;;;4865864;29;20112;-87
2022/03/19 01:20:57;;;;;;;13.82;3.20;;;6.20;99.90;;;;;;4881689;29;20072;-87
2022/03/19 01:23:23;;;;;;;18.02;3.58;;;5.40;99.90;;;;;;4865652;29;20057;-86
2022/03/19 01:25:49;;;;;;;13.10;3.10;;;5.40;99.90;;;;;;4866044;29;20048;-87
2022/03/19 01:28:15;;;;;;;18.55;3.33;;;5.40;99.90;;;;;;4865081;29;20475;-86
2022/03/19 01:30:41;;;;;;;;;;;5.70;99.90;;;;;;4866242;29;20052;-86
2022/03/19 01:33:07;;;;;;;13.18;3.72;;;5.40;99.90;;;;;;4881253;29;20322;-87
2022/03/19 01:35:33;;;;;;;17.38;3.45;;;5.40;99.90;;;;;;4865594;29;20060;-87
2022/03/19 01:37:59;;;;;;;16.38;3.42;;;5.30;99.90;;;;;;4864587;29;20148;-87
2022/03/19 01:40:25;;;;;;;15.85;3.28;;;5.60;99.90;;;;;;4880577;29;20060;-86
2022/03/19 01:42:52;;;;;;;12.65;3.30;;;5.50;99.90;;;;;;4880810;29;20512;-87
2022/03/19 01:45:20;;;;;;;13.13;3.08;;;5.70;99.90;;;;;;4865309;29;20092;-87
2022/03/19 01:47:48;;;;;;;16.55;3.35;;;5.30;99.90;;;;;;4880849;29;20407;-87
2022/03/19 01:50:13;;;;;;;21.70;3.92;;;5.30;99.90;;;;;;4880807;29;20052;-88
2022/03/19 01:52:40;;;;;;;25.55;3.72;;;5.80;99.90;;;;;;4865414;29;20056;-88
2022/03/19 01:55:07;;;;;;;11.18;4.10;;;6.00;99.90;;;;;;4880819;29;20048;-86
2022/03/19 01:57:38;;;;;;;14.93;3.92;;;5.30;99.90;;;;;;4865079;29;20524;-87
2022/03/19 02:00:09;;;;;;;12.32;3.95;;;5.30;99.90;;;;;;4881267;29;20044;-87
2022/03/19 02:02:35;;;;;;;20.17;4.07;;;5.30;99.90;;;;;;4865042;29;20052;-87
2022/03/19 02:05:03;;;;;;;18.92;3.92;;;5.30;99.90;;;;;;4865617;29;20447;-87
2022/03/19 02:07:30;;;;;;;23.15;4.45;;;5.30;99.90;;;;;;4864903;29;20455;-87
2022/03/19 02:10:00;;;;;;;17.73;4.40;;;5.90;99.90;;;;;;4865272;29;20392;-87
2022/03/19 02:12:26;;;;;;;18.52;4.72;;;5.40;99.90;;;;;;4864765;29;20044;-87
2022/03/19 02:14:52;;;;;;;;;;;6.10;99.90;;;;;;4851053;29;20475;-87
2022/03/19 02:17:18;;;;;;;15.45;4.38;;;5.40;99.90;;;;;;4880480;29;19970;-87
2022/03/19 02:19:49;;;;;;;18.10;4.70;;;5.50;99.90;;;;;;4880381;29;20052;-87
2022/03/19 02:22:19;;;;;;;17.63;3.85;;;5.40;99.90;;;;;;4880109;29;20052;-88
2022/03/19 02:27:32;;;;;;;17.42;5.13;;;6.10;99.90;;;;;;4867253;29;20154;-87
2022/03/19 02:29:58;;;;;;;15.63;4.93;;;5.40;99.90;;;;;;4880802;29;20040;-87
2022/03/19 02:32:25;;;;;;;14.55;4.60;;;5.30;99.90;;;;;;4864975;29;20052;-87
2022/03/19 02:34:52;;;;;;;12.88;4.47;;;5.30;99.90;;;;;;4865131;29;20045;-86
2022/03/19 02:37:18;;;;;;;20.58;5.28;;;5.30;99.90;;;;;;4864508;29;20499;-88
2022/03/19 02:39:43;;;;;;;17.35;4.45;;;5.40;99.90;;;;;;4880707;29;20112;-87
2022/03/19 02:42:09;;;;;;;25.75;4.90;;;5.60;99.90;;;;;;4849423;29;20079;-87
2022/03/19 02:44:36;;;;;;;15.15;4.47;;;5.60;99.90;;;;;;4864809;29;20048;-88
2022/03/19 02:47:07;;;;;;;18.05;4.97;;;5.10;99.90;;;;;;4865051;29;20056;-87
2022/03/19 02:49:33;;;;;;;21.73;4.20;;;5.10;99.90;;;;;;4864545;29;20052;-87
2022/03/19 02:51:59;;;;;;;;;;;5.10;99.90;;;;;;4880997;29;20045;-87
2022/03/19 02:54:27;;;;;;;22.13;4.95;;;5.00;99.90;;;;;;4879858;29;19934;-86
2022/03/19 02:56:54;;;;;;;20.17;4.38;;;5.30;99.90;;;;;;4880338;29;20045;-85
2022/03/19 02:59:22;;;;;;;14.60;4.25;;;5.70;99.90;;;;;;4880235;29;20454;-88
2022/03/19 03:01:50;;;;;;;23.83;5.18;;;5.60;99.90;;;;;;4880429;29;20052;-86
2022/03/19 03:04:16;;;;;;;16.45;4.90;;;4.90;99.90;;;;;;4880584;29;20052;-86
2022/03/19 03:06:44;;;;;;;13.38;4.53;;;5.00;99.90;;;;;;4879921;29;20589;-86
2022/03/19 03:09:10;;;;;;;17.73;4.78;;;4.90;99.90;;;;;;4864472;29;20049;-86
2022/03/19 03:11:37;;;;;;;13.50;4.63;;;5.40;99.90;;;;;;4879310;29;20559;-86
2022/03/19 03:14:03;;;;;;;12.55;4.30;;;5.00;99.90;;;;;;4880253;29;20052;-87
2022/03/19 03:16:30;;;;;;;20.60;4.82;;;4.80;99.90;;;;;;4849838;29;20056;-86
2022/03/19 03:19:03;;;;;;;18.02;4.85;;;5.20;99.90;;;;;;4865032;29;20056;-87
2022/03/19 03:21:29;;;;;;;20.92;4.82;;;5.20;99.90;;;;;;4879960;29;20115;-87
2022/03/19 03:23:55;;;;;;;20.23;4.75;;;4.80;99.90;;;;;;4864880;29;20432;-86
2022/03/19 03:26:21;;;;;;;18.90;4.70;;;5.00;99.90;;;;;;4880231;29;20095;-87
2022/03/19 03:28:47;;;;;;;18.17;4.43;;;4.80;99.90;;;;;;4849135;29;20056;-87
2022/03/19 03:31:12;;;;;;;22.65;4.97;;;4.90;99.90;;;;;;4864334;29;20104;-88
2022/03/19 03:33:38;;;;;;;22.33;5.13;;;4.80;99.90;;;;;;4867046;29;20161;-87
2022/03/19 03:36:05;;;;;;;18.05;4.40;;;4.70;99.90;;;;;;4852400;29;20558;-87
2022/03/19 03:38:31;;;;;;;18.77;5.22;;;4.60;99.90;;;;;;4882732;29;20063;-85
2022/03/19 03:40:57;;;;;;;;;;;4.60;99.90;;;;;;4868335;29;20104;-87
2022/03/19 03:43:23;;;;;;;16.23;4.30;;;4.50;99.90;;;;;;4882763;29;19924;-86
2022/03/19 03:45:49;;;;;;;17.73;4.22;;;4.40;99.90;;;;;;4867322;29;20069;-86
2022/03/19 03:48:14;;;;;;;15.82;4.50;;;4.80;99.90;;;;;;4864307;29;20052;-86
2022/03/19 03:50:40;;;;;;;15.68;5.28;;;4.30;99.90;;;;;;4833599;29;20407;-86
2022/03/19 03:53:07;;;;;;;15.80;4.45;;;4.50;99.90;;;;;;4878822;29;20084;-86
2022/03/19 03:55:35;;;;;;;22.85;4.72;;;4.20;99.90;;;;;;4851774;29;20056;-87
2022/03/19 03:58:01;;;;;;;15.30;4.20;;;5.20;99.90;;;;;;4866945;29;20432;-87
2022/03/19 04:00:27;;;;;;;18.45;5.05;;;4.30;99.90;;;;;;4867116;29;20251;-88
2022/03/19 04:02:53;;;;;;;16.65;4.07;;;4.10;99.90;;;;;;4852053;29;20044;-87
2022/03/19 04:05:19;;;;;;;15.82;4.80;;;4.10;99.90;;;;;;4867517;29;20510;-87
2022/03/19 04:07:45;;;;;;;14.93;4.70;;;4.10;99.90;;;;;;4851448;29;20143;-87
2022/03/19 04:10:11;;;;;;;13.63;4.22;;;4.40;99.90;;;;;;4867107;29;20108;-86
2022/03/19 04:12:37;;;;;;;14.23;4.35;;;4.10;99.90;;;;;;4881953;29;20045;-87
2022/03/19 04:15:05;;;;;;;14.95;4.85;;;4.90;99.90;;;;;;4867505;29;20514;-87
2022/03/19 04:17:30;;;;;;;16.45;4.53;;;4.10;99.90;;;;;;4848019;29;20052;-87
2022/03/19 04:19:56;;;;;;;14.70;4.22;;;4.40;99.90;;;;;;4848579;29;20049;-86
2022/03/19 04:22:22;;;;;;;18.25;4.20;;;4.20;99.90;;;;;;4879662;29;20132;-86
2022/03/19 04:24:48;;;;;;;17.00;4.20;;;4.10;99.90;;;;;;4878789;29;20044;-86
2022/03/19 04:27:14;;;;;;;15.68;4.05;;;4.60;99.90;;;;;;4848164;29;20480;-87
2022/03/19 04:29:40;;;;;;;;;;;4.10;99.90;;;;;;4864107;29;20456;-86
2022/03/19 04:32:06;;;;;;;14.50;4.40;;;4.10;99.90;;;;;;4850107;29;19923;-86
2022/03/19 04:34:32;;;;;;;14.80;4.10;;;3.90;99.90;;;;;;4847660;29;20045;-87
2022/03/19 04:36:58;;;;;;;17.75;4.55;;;4.70;99.90;;;;;;4863056;29;20068;-86
2022/03/19 04:39:23;;;;;;;16.17;4.30;;;4.20;99.90;;;;;;4862402;29;20056;-86
2022/03/19 04:41:49;;;;;;;16.13;4.18;;;4.10;99.90;;;;;;4847430;29;20045;-86
2022/03/19 04:44:16;;;;;;;12.52;3.83;;;3.80;99.90;;;;;;4832614;29;20059;-86
2022/03/19 04:46:42;;;;;;;20.00;5.05;;;3.80;99.90;;;;;;4847395;29;20494;-86
2022/03/19 04:49:07;;;;;;;15.77;4.30;;;4.00;99.90;;;;;;4863436;29;20048;-86
2022/03/19 04:51:37;;;;;;;14.63;4.28;;;3.90;99.90;;;;;;4847744;29;20391;-86
2022/03/19 04:54:03;;;;;;;13.15;4.18;;;3.90;99.90;;;;;;4863000;29;20053;-86
2022/03/19 04:56:29;;;;;;;;;;;3.90;99.90;;;;;;4878632;29;20053;-87
2022/03/19 04:58:57;;;;;;;11.57;3.80;;;4.00;99.90;;;;;;4862788;29;19923;-87
2022/03/19 05:01:28;;;;;;;13.23;3.85;;;4.00;99.90;;;;;;4870749;29;20057;-87
2022/03/19 05:03:53;;;;;;;17.10;4.63;;;4.40;99.90;;;;;;4847063;29;20048;-86
2022/03/19 05:06:19;;;;;;;15.95;4.03;;;5.00;99.90;;;;;;4863803;29;20155;-87
2022/03/19 05:08:45;;;;;;;14.65;4.18;;;3.90;99.90;;;;;;4881241;29;20140;-86
2022/03/19 05:11:14;;;;;;;9.27;3.38;;;3.90;99.90;;;;;;4850490;29;20056;-86
2022/03/19 05:13:41;;;;;;;14.95;4.15;;;4.60;99.90;;;;;;4865180;29;20059;-86
2022/03/19 05:16:07;;;;;;;11.93;3.75;;;4.00;99.90;;;;;;4850041;29;20040;-87
2022/03/19 05:18:33;;;;;;;11.52;3.65;;;3.90;99.90;;;;;;4846884;29;20148;-86
2022/03/19 05:20:58;;;;;;;12.70;3.03;;;4.30;99.90;;;;;;4847405;29;20052;-86
2022/03/19 05:23:24;;;;;;;12.60;3.88;;;3.90;99.90;;;;;;4855974;29;20059;-86
2022/03/19 05:25:52;;;;;;;14.50;3.90;;;3.90;99.90;;;;;;4865342;29;20115;-86
2022/03/19 05:28:18;;;;;;;15.02;4.10;;;3.90;99.90;;;;;;4871744;29;20128;-87
2022/03/19 05:30:45;;;;;;;16.75;3.88;;;3.90;99.90;;;;;;4846980;29;20045;-86
2022/03/19 05:33:12;;;;;;;14.20;4.00;;;4.60;99.90;;;;;;4847102;29;20136;-87
2022/03/19 05:35:38;;;;;;;19.52;4.47;;;4.50;99.90;;;;;;4847847;29;20509;-86
2022/03/19 05:38:07;;;;;;;14.43;4.05;;;3.90;99.90;;;;;;4849925;29;20101;-86
2022/03/19 05:40:33;;;;;;;16.58;3.92;;;4.40;99.90;;;;;;4864993;29;20040;-86
2022/03/19 05:42:59;;;;;;;15.77;3.95;;;3.90;99.90;;;;;;4880613;29;20045;-86
2022/03/19 05:45:25;;;;;;;15.38;3.67;;;4.10;99.90;;;;;;4881002;29;20055;-86
2022/03/19 05:47:51;;;;;;;17.20;4.05;;;3.90;99.90;;;;;;4861344;29;20049;-86
2022/03/19 05:50:17;;;;;;;17.85;3.70;;;3.90;99.90;;;;;;4841108;29;20060;-86
2022/03/19 05:52:46;;;;;;;;;;;4.10;99.90;;;;;;4862339;29;20133;-87
2022/03/19 05:55:13;;;;;;;15.60;3.85;;;3.90;99.90;;;;;;4846349;29;19923;-86
2022/03/19 05:57:40;;;;;;;17.80;3.55;;;3.90;99.90;;;;;;4845719;29;20059;-87
2022/03/19 06:00:08;;;;;;;19.05;4.00;;;3.90;99.90;;;;;;4861802;29;20049;-87
2022/03/19 06:02:41;;;;;;;12.80;3.58;;;3.90;99.90;;;;;;4846422;29;20544;-88
2022/03/19 06:05:08;;;;;;;17.45;4.45;;;3.90;99.90;;;;;;4862335;29;20055;-87
2022/03/19 06:07:33;;;;;;;17.90;4.15;;;3.90;99.90;;;;;;4861286;29;20083;-88
2022/03/19 06:09:59;;;;;;;13.55;4.05;;;4.00;99.90;;;;;;4861763;29;20479;-87
2022/03/19 06:12:25;;;;;;;14.18;3.58;;;4.90;99.90;;;;;;4846405;29;20777;-88
2022/03/19 06:14:53;;;;;;;21.25;4.68;;;4.30;99.90;;;;;;4846736;29;20429;-88
2022/03/19 06:17:20;;;;;;;17.90;3.80;;;4.10;99.90;;;;;;4846609;29;20135;-88
2022/03/19 06:19:46;;;;;;;13.30;3.63;;;4.10;99.90;;;;;;4846565;29;20049;-88
2022/03/19 06:22:11;;;;;;;21.45;4.65;;;5.00;99.90;;;;;;4831776;29;20104;-87
2022/03/19 06:24:37;;;;;;;18.88;4.88;;;4.20;99.90;;;;;;4846478;29;20085;-87
2022/03/19 06:27:03;;;;;;;18.75;4.70;;;4.50;99.90;;;;;;4861381;29;20079;-87
2022/03/19 06:29:30;;;;;;;14.57;3.97;;;4.20;99.90;;;;;;4862072;29;20053;-87
2022/03/19 06:31:55;;;;;;;17.25;4.30;;;4.20;99.90;;;;;;4846298;29;20290;-88
2022/03/19 06:34:21;;;;;;;11.48;4.28;;;4.30;99.90;;;;;;4845157;29;20135;-87
2022/03/19 06:39:31;;;;;;;17.55;3.90;;;4.40;99.90;;;;;;4861839;29;20567;-87
2022/03/19 06:41:57;;;;;;;16.83;4.05;;;4.50;99.90;;;;;;4846396;29;20053;-88
2022/03/19 06:44:23;;;;;;;11.65;3.55;;;5.10;99.90;;;;;;4846850;29;20057;-87
2022/03/19 06:46:49;;;;;;;;;;;4.60;99.90;;;;;;4862498;29;20439;-88
2022/03/19 06:49:15;;;;;;;10.93;3.65;;;4.40;99.90;;;;;;4862317;29;19924;-89
2022/03/19 06:51:40;;;;;;;13.90;4.00;;;4.40;99.90;;;;;;4862370;29;20627;-90
2022/03/19 06:54:06;;;;;;;14.50;3.67;;;4.40;99.90;;;;;;4862511;29;20053;-89
2022/03/19 06:56:32;;;;;;;16.67;3.78;;;4.40;99.90;;;;;;4846526;29;20049;-89
2022/03/19 06:58:58;;;;;;;14.77;4.65;;;4.80;99.90;;;;;;4846603;29;20114;-89
2022/03/19 07:01:24;;;;;;;18.42;4.25;;;4.80;99.90;;;;;;4862441;29;20092;-88
2022/03/19 07:03:49;;;;;;;;;;;4.60;99.90;;;;;;4868866;29;20077;-89
2022/03/19 07:06:17;;;;;;;17.60;4.53;;;4.60;99.90;;;;;;4881395;29;19923;-88
2022/03/19 07:08:43;;;;;;;11.27;4.15;;;4.60;99.90;;;;;;4883280;29;20433;-88
2022/03/19 07:11:09;;;;;;;16.70;4.70;;;5.50;99.90;;;;;;4865154;29;20456;-91
2022/03/19 07:13:34;;;;;;;17.75;4.63;;;4.80;99.90;;;;;;4880415;29;20053;-89
2022/03/19 07:16:00;;;;;;;20.05;4.40;;;4.80;99.90;;;;;;4850297;29;20600;-90
2022/03/19 07:18:26;;;;;;;16.35;4.13;;;4.80;99.90;;;;;;4868319;29;20056;-90
2022/03/19 07:20:52;;;;;;;19.02;4.30;;;5.60;99.90;;;;;;4884574;29;20058;-91
2022/03/19 07:23:27;;;;;;;15.10;4.25;;;4.90;99.90;;;;;;4896284;29;20566;-93
2022/03/19 07:25:59;;;;;;;16.63;3.63;;;5.00;99.90;;;;;;4866982;29;20064;-90
2022/03/19 07:28:25;;;;;;;15.10;4.35;;;5.10;99.90;;;;;;4872060;29;20052;-93
2022/03/19 07:30:51;;;;;;;16.88;4.35;;;5.20;99.90;;;;;;4869165;29;20052;-92
2022/03/19 07:33:17;;;;;;;13.93;3.92;;;5.30;99.90;;;;;;4884527;29;20063;-94
2022/03/19 07:35:43;;;;;;;16.17;4.57;;;5.50;99.90;;;;;;4854007;29;20139;-91
2022/03/19 07:38:10;;;;;;;;;;;5.20;99.90;;;;;;4869619;29;20067;-94
2022/03/19 07:43:23;;;;;;;9.27;3.45;;;5.40;99.90;;;;;;4856342;29;20455;-94
2022/03/19 07:45:49;;;;;;;18.17;4.47;;;5.40;99.90;;;;;;4852825;29;20080;-92
2022/03/19 07:48:15;;;;;;;;;;;5.40;99.90;;;;;;4881015;29;20064;-93
2022/03/19 07:50:41;;;;;;;10.55;3.65;;;5.90;99.90;;;;;;4870217;29;19924;-94
2022/03/19 07:53:07;;;;;;;15.30;3.67;;;5.50;99.90;;;;;;4852278;29;20060;-94
2022/03/19 07:55:33;;;;;;;10.98;3.33;;;6.70;99.90;;;;;;4850929;29;20108;-94
2022/03/19 07:58:00;;;;;;;13.25;3.38;;;5.50;99.90;;;;;;4850699;29;20049;-93
2022/03/19 08:00:28;;;;;;;16.08;3.95;;;6.80;99.90;;;;;;4852158;29;20096;-92
2022/03/19 08:02:54;;;;;;;13.40;3.72;;;6.90;99.90;;;;;;4874777;29;20045;-94
2022/03/19 08:05:20;;;;;;;14.05;3.85;;;5.70;99.90;;;;;;4867581;29;20483;-94
2022/03/19 08:07:51;;;;;;;16.50;5.32;;;5.70;99.90;;;;;;4855447;29;20045;-91
2022/03/19 08:10:21;;;;;;;12.82;4.22;;;5.80;99.90;;;;;;4869545;29;20061;-94
2022/03/19 08:12:59;;;;;;;13.10;3.92;;;5.80;99.90;;;;;;4874411;29;20109;-89
2022/03/19 08:15:34;;;;;;;13.60;4.22;;;6.10;99.90;;;;;;4863267;29;20089;-94
2022/03/19 08:18:01;;;;;;;12.88;4.00;;;6.20;99.90;;;;;;4861328;29;20091;-94
2022/03/19 08:20:27;;;;;;;12.68;3.63;;;6.70;99.90;;;;;;4874530;29;20562;-95
2022/03/19 08:22:57;;;;;;;14.02;4.03;;;6.40;99.90;;;;;;4875791;29;20080;-93
2022/03/19 08:25:23;;;;;;;11.77;3.67;;;7.20;99.90;;;;;;4879148;29;20518;-96
2022/03/19 08:27:54;;;;;;;11.70;3.30;;;6.70;99.90;;;;;;4860402;29;20049;-89
2022/03/19 08:30:20;;;;;;;8.63;2.85;;;6.30;99.90;;;;;;4876094;29;20053;-87
2022/03/19 08:32:49;;;;;;;12.55;3.53;;;7.50;99.90;;;;;;4868044;29;20053;-95
2022/03/19 08:35:15;;;;;;;9.45;2.95;;;6.40;99.90;;;;;;4850322;29;20057;-94
2022/03/19 08:37:40;;;;;;;10.68;3.28;;;7.30;99.90;;;;;;4858142;29;20111;-95
2022/03/19 08:40:15;;;;;;;18.35;3.30;;;6.50;99.90;;;;;;4870776;29;20045;-94
2022/03/19 08:42:42;;;;;;;9.55;2.65;;;6.60;99.90;;;;;;4864962;29;20053;-95
2022/03/19 08:45:08;;;;;;;12.80;3.05;;;6.70;99.90;;;;;;4840623;29;20063;-90
2022/03/19 08:47:35;;;;;;;19.45;3.45;;;6.80;99.90;;;;;;4939920;24;20040;-89
2022/03/19 08:50:03;;;;;;;;;;;6.90;99.90;;;;;;4941992;23;20056;-90
2022/03/19 08:52:33;;;;;;;14.95;3.25;;;7.30;99.90;;;;;;4017265;23;20010;-94
2022/03/19 08:55:05;;;;;;;14.45;2.90;;;7.10;99.90;;;;;;4888315;29;20059;-95
2022/03/19 08:57:32;;;;;;;11.00;3.30;;;7.20;99.90;;;;;;4867560;29;20056;-94
2022/03/19 08:59:58;;;;;;;10.43;2.97;;;7.70;99.90;;;;;;4882395;29;20145;-95
2022/03/19 09:02:31;;;;;;;;;;;7.30;99.90;;;;;;4882694;29;20075;-95
2022/03/19 09:04:57;;;;;;;11.15;2.80;;;7.30;99.90;;;;;;4891085;29;20487;-96
2022/03/19 09:07:24;;;;;;;12.60;2.63;;;7.30;99.90;;;;;;4877144;29;20050;-95
2022/03/19 09:09:52;;;;;;;12.32;2.70;;;8.40;99.90;;;;;;4851558;29;20057;-95
2022/03/19 09:12:24;;;;;;;16.10;2.92;;;6.90;99.90;;;;;;4866203;29;20084;-96
2022/03/19 09:14:50;;;;;;;9.43;2.33;;;7.50;99.90;;;;;;4866741;29;20060;-95
2022/03/19 09:17:16;;;;;;;11.32;4.22;;;7.60;99.90;;;;;;4866727;29;20044;-94
2022/03/19 09:19:41;;;;;;;10.38;2.47;;;8.00;99.90;;;;;;4867082;29;20403;-91
2022/03/19 09:22:07;;;;;;;13.27;3.00;;;7.80;99.90;;;;;;4881637;29;20060;-87
2022/03/19 09:24:33;;;;;;;11.02;2.63;;;8.00;99.90;;;;;;4870294;29;20048;-92
2022/03/19 09:26:59;;;;;;;12.18;2.70;;;8.10;99.90;;;;;;4833598;29;20072;-89
2022/03/19 09:29:25;;;;;;;11.40;2.85;;;8.30;99.90;;;;;;4848004;29;20048;-89
2022/03/19 09:31:51;;;;;;;12.73;2.85;;;8.30;99.90;;;;;;4853039;29;20093;-94
2022/03/19 09:34:16;;;;;;;10.75;2.45;;;8.10;99.90;;;;;;4879236;29;20143;-91
2022/03/19 09:36:46;;;;;;;16.17;2.80;;;8.20;99.90;;;;;;4848522;29;20620;-94
2022/03/19 09:39:15;;;;;;;13.73;2.88;;;8.30;99.90;;;;;;4833176;29;20092;-91
2022/03/19 09:41:42;;;;;;;10.60;2.47;;;8.30;99.90;;;;;;4848076;29;20088;-92
2022/03/19 09:44:11;;;;;;;11.50;2.45;;;8.60;99.90;;;;;;4881952;29;20064;-93
2022/03/19 09:46:37;;;;;;;11.18;2.58;;;8.40;99.90;;;;;;4867413;29;20088;-90
2022/03/19 09:49:04;;;;;;;10.48;2.50;;;8.60;99.90;;;;;;4858244;29;20060;-94
2022/03/19 09:51:31;;;;;;;;;;;8.60;99.90;;;;;;4867150;29;20052;-92
2022/03/19 09:53:57;;;;;;;;;;;8.70;99.90;;;;;;4867193;29;19927;-90
2022/03/19 09:56:22;;;;;;;8.05;2.28;;;8.80;99.90;;;;;;4851575;29;20026;-92
2022/03/19 09:58:48;;;;;;;15.05;2.50;;;8.90;99.90;;;;;;4881753;29;20149;-92
2022/03/19 10:01:20;;;;;;;14.02;3.38;;;8.90;99.90;;;;;;4866158;29;20088;-93
2022/03/19 10:03:49;;;;;;;8.75;2.40;;;9.00;99.30;;;;;;4882238;29;20570;-92
2022/03/19 10:09:01;;;;;;;10.48;2.10;;;9.10;99.80;;;;;;4883760;29;20560;-90
2022/03/19 10:11:31;;;;;;;;;;;9.20;98.20;;;;;;4884603;29;20048;-89
2022/03/19 10:13:58;;;;;;;9.68;1.90;;;9.30;94.60;;;;;;4883106;29;19927;-91
2022/03/19 10:16:28;;;;;;;5.78;1.77;;;9.40;95.00;;;;;;4872910;29;20063;-89
2022/03/19 10:18:58;;;;;;;7.22;1.77;;;9.50;95.20;;;;;;4891837;29;20454;-87
2022/03/19 10:21:26;;;;;;;10.35;2.28;;;9.60;93.20;;;;;;4879541;29;20053;-87
2022/03/19 10:23:52;;;;;;;6.40;2.10;;;9.60;92.20;;;;;;4890723;29;20043;-88
2022/03/19 10:26:28;;;;;;;9.25;2.55;;;9.70;90.40;;;;;;4879670;29;20051;-90
2022/03/19 10:29:03;;;;;;;8.07;2.13;;;9.80;89.40;;;;;;4876336;29;20109;-90
2022/03/19 10:31:43;;;;;;;9.32;2.63;;;9.90;90.30;;;;;;4878281;29;20056;-90
2022/03/19 10:34:09;;;;;;;6.45;1.90;;;9.90;90.40;;;;;;4870740;29;20052;-89
2022/03/19 10:36:45;;;;;;;5.95;2.25;;;10.00;90.90;;;;;;4880850;29;20124;-90
2022/03/19 10:39:21;;;;;;;11.43;2.47;;;10.10;90.80;;;;;;4880048;29;20059;-89
2022/03/19 10:41:48;;;;;;;11.73;2.55;;;10.20;91.40;;;;;;4867350;29;20139;-87
2022/03/19 10:44:16;;;;;;;9.30;2.90;;;10.30;90.80;;;;;;4872875;29;20045;-84
2022/03/19 10:46:48;;;;;;;11.60;3.03;;;10.40;91.60;;;;;;4883315;29;20045;-90
2022/03/19 10:49:15;;;;;;;11.57;2.60;;;10.50;91.10;;;;;;4869705;29;20108;-86
2022/03/19 10:51:54;;;;;;;9.98;2.28;;;10.50;91.10;;;;;;4882209;29;20097;-83
2022/03/19 10:54:22;;;;;;;12.13;4.50;;;10.60;87.20;;;;;;4872133;29;20048;-89
2022/03/19 10:56:49;;;;;;;8.15;2.10;;;10.60;86.90;;;;;;4866542;29;20055;-89
2022/03/19 10:59:15;;;;;;;7.68;1.70;;;10.70;84.00;;;;;;4854244;29;20161;-89
2022/03/19 11:01:42;;;;;;;8.98;1.70;;;10.80;79.20;;;;;;4862078;29;20092;-91
2022/03/19 11:04:10;;;;;;;10.52;2.10;;;10.80;78.40;;;;;;4871253;29;20056;-88
2022/03/19 11:06:41;;;;;;;8.23;1.90;;;10.90;75.70;;;;;;4872412;29;20104;-93
2022/03/19 11:09:10;;;;;;;8.68;2.08;;;10.90;75.10;;;;;;4868363;29;20052;-91
2022/03/19 11:11:55;;;;;;;6.22;1.50;;;11.00;75.60;;;;;;4862570;29;20562;-91
2022/03/19 11:14:23;;;;;;;7.75;1.83;;;11.10;74.20;;;;;;4864910;29;20051;-91
2022/03/19 11:19:47;;;;;;;4.32;1.50;;;11.30;72.40;;;;;;4881985;29;20260;-91
2022/03/19 11:22:13;;;;;;;5.30;1.13;;;11.40;72.30;;;;;;4879579;29;20088;-89
2022/03/19 11:25:03;;;;;;;7.60;2.00;;;11.50;69.50;;;;;;4892139;29;20143;-89
2022/03/19 11:27:32;;;;;;;9.32;1.70;;;11.60;69.50;;;;;;4888405;29;20071;-92
2022/03/19 11:30:01;;;;;;;11.77;2.38;;;11.70;71.90;;;;;;4875912;29;20620;-93
2022/03/19 11:32:30;;;;;;;6.63;1.75;;;11.90;72.50;;;;;;4893936;29;20040;-93
2022/03/19 11:34:59;;;;;;;5.68;1.80;;;12.00;72.40;;;;;;4867697;29;20044;-92
2022/03/19 11:38:11;;;;;;;5.75;1.92;;;12.20;71.50;;;;;;4867874;29;20113;-92
2022/03/19 11:40:42;;;;;;;7.63;1.65;;;12.40;71.50;;;;;;4813932;29;20093;-89
2022/03/19 11:43:09;;;;;;;7.45;1.90;;;12.50;70.90;;;;;;4813824;29;20061;-87
2022/03/19 11:45:40;;;;;;;25.35;4.20;;;12.70;70.50;;;;;;4858641;29;20052;-91
2022/03/19 11:48:34;;;;;;;6.10;1.80;;;12.90;67.10;;;;;;4875803;29;20055;-83
2022/03/19 11:51:25;;;;;;;8.35;2.03;;;13.00;68.00;;;;;;4872907;29;20044;-92
2022/03/19 11:54:02;;;;;;;6.10;2.42;;;13.20;67.70;;;;;;4870398;29;20071;-92
2022/03/19 11:56:48;;;;;;;7.72;2.17;;;13.40;66.80;;;;;;4869756;29;20101;-85
2022/03/19 11:59:23;;;;;;;8.57;2.13;;;13.60;66.70;;;;;;4889496;29;20053;-92
2022/03/19 12:02:01;;;;;;;7.97;2.10;;;13.80;67.00;;;;;;4867989;29;20056;-93
2022/03/19 12:04:47;;;;;;;5.05;1.95;;;14.00;65.10;;;;;;4890099;29;20063;-92
2022/03/19 12:07:47;;;;;;;6.63;1.77;;;14.20;65.20;;;;;;4868956;29;20403;-90
2022/03/19 12:10:18;;;;;;;7.70;1.60;;;14.50;65.20;;;;;;4882745;29;20055;-91
2022/03/19 12:12:45;;;;;;;5.35;1.65;;;14.80;63.80;;;;;;4882938;29;20132;-92
2022/03/19 12:15:33;;;;;;;7.30;1.70;;;15.00;62.80;;;;;;4867356;29;20048;-94
2022/03/19 12:18:28;;;;;;;5.35;1.60;;;15.10;58.90;;;;;;4866587;29;20494;-92
2022/03/19 12:20:57;;;;;;;5.47;1.60;;;15.30;58.30;;;;;;4884793;29;20052;-90
2022/03/19 12:23:24;;;;;;;5.45;1.80;;;15.50;59.20;;;;;;4875987;29;20108;-93
2022/03/19 12:26:11;;;;;;;5.68;1.52;;;15.50;60.00;;;;;;4897595;29;20507;-94
2022/03/19 12:28:36;;;;;;;6.28;1.65;;;15.70;57.90;;;;;;4867308;29;20055;-95
2022/03/19 12:31:11;;;;;;;;;;;15.90;60.60;;;;;;4885515;29;20044;-92
2022/03/19 12:33:37;;;;;;;7.28;1.98;;;16.00;56.80;;;;;;4863183;29;19927;-92
2022/03/19 12:36:12;;;;;;;;;;;16.20;60.80;;;;;;4866019;29;20040;-94
2022/03/19 12:38:37;;;;;;;7.57;1.85;;;16.50;58.70;;;;;;4880882;29;20338;-93
2022/03/19 12:43:47;;;;;;;3.90;1.60;;;16.90;52.90;;;;;;4892475;29;19934;-93
2022/03/19 12:46:21;;;;;;;;;;;17.00;54.60;;;;;;4856625;29;20049;-91
2022/03/19 12:48:46;;;;;;;3.78;1.25;;;17.20;53.80;;;;;;4863906;29;19931;-94
2022/03/19 12:51:21;;;;;;;;;;;17.20;52.90;;;;;;4865656;29;20048;-92
2022/03/19 12:53:47;;;;;;;4.95;1.73;;;17.20;51.00;;;;;;4901097;29;19977;-88
2022/03/19 12:56:19;;;;;;;;;;;17.10;50.40;;;;;;4900758;29;20079;-92
2022/03/19 12:58:47;;;;;;;6.85;1.70;;;17.30;51.80;;;;;;4889306;29;19930;-91
2022/03/19 13:01:14;;;;;;;6.03;1.40;;;17.40;50.70;;;;;;4847938;29;20053;-90
2022/03/19 13:03:41;;;;;;;5.18;1.52;;;17.40;47.20;;;;;;4863388;29;20060;-91
2022/03/19 13:06:08;;;;;;;9.43;1.63;;;17.30;47.40;;;;;;4893175;29;20084;-92
2022/03/19 13:08:47;;;;;;;4.47;1.50;;;17.20;46.80;;;;;;4877485;29;20061;-92
2022/03/19 13:11:16;;;;;;;9.57;1.77;;;17.30;47.80;;;;;;4862866;29;20096;-92
2022/03/19 13:13:43;;;;;;;6.38;1.50;;;17.50;48.30;;;;;;4864390;29;20048;-92